sensor_id;sensor_type;location;lat;lon;timestamp;P1;durP1;ratioP1;P2;durP2;ratioP2
44228;SDS011;29904;51.058;5.378;2022-12-13T00:01:31;20.02;;;11.10;;
44228;SDS011;29904;51.058;5.378;2022-12-13T00:04:00;22.05;;;11.80;;
44228;SDS011;29904;51.058;5.378;2022-12-13T00:06:27;23.30;;;11.80;;
44228;SDS011;29904;51.058;5.378;2022-12-13T00:08:54;21.67;;;12.07;;
44228;SDS011;29904;51.058;5.378;2022-12-13T00:11:20;24.08;;;12.20;;
44228;SDS011;29904;51.058;5.378;2022-12-13T00:13:46;23.88;;;11.90;;
44228;SDS011;29904;51.058;5.378;2022-12-13T00:16:13;21.53;;;11.30;;
44228;SDS011;29904;51.058;5.378;2022-12-13T00:18:41;21.88;;;11.65;;
44228;SDS011;29904;51.058;5.378;2022-12-13T00:21:07;21.00;;;11.00;;
44228;SDS011;29904;51.058;5.378;2022-12-13T00:23:36;20.88;;;11.93;;
44228;SDS011;29904;51.058;5.378;2022-12-13T00:26:06;23.33;;;12.95;;
44228;SDS011;29904;51.058;5.378;2022-12-13T00:28:34;23.05;;;12.20;;
44228;SDS011;29904;51.058;5.378;2022-12-13T00:31:00;23.42;;;12.43;;
44228;SDS011;29904;51.058;5.378;2022-12-13T00:33:30;20.00;;;11.13;;
44228;SDS011;29904;51.058;5.378;2022-12-13T00:35:58;22.85;;;11.52;;
44228;SDS011;29904;51.058;5.378;2022-12-13T00:38:29;23.33;;;11.33;;
44228;SDS011;29904;51.058;5.378;2022-12-13T00:40:54;21.80;;;11.05;;
44228;SDS011;29904;51.058;5.378;2022-12-13T00:43:22;24.08;;;12.25;;
44228;SDS011;29904;51.058;5.378;2022-12-13T00:45:48;23.63;;;12.63;;
44228;SDS011;29904;51.058;5.378;2022-12-13T00:48:13;24.70;;;11.95;;
44228;SDS011;29904;51.058;5.378;2022-12-13T00:50:41;21.65;;;11.77;;
44228;SDS011;29904;51.058;5.378;2022-12-13T00:53:07;21.23;;;11.30;;
44228;SDS011;29904;51.058;5.378;2022-12-13T00:55:33;23.52;;;12.48;;
44228;SDS011;29904;51.058;5.378;2022-12-13T00:58:04;21.85;;;11.77;;
44228;SDS011;29904;51.058;5.378;2022-12-13T01:00:30;21.02;;;12.13;;
44228;SDS011;29904;51.058;5.378;2022-12-13T01:02:56;22.73;;;12.45;;
44228;SDS011;29904;51.058;5.378;2022-12-13T01:05:21;23.60;;;12.07;;
44228;SDS011;29904;51.058;5.378;2022-12-13T01:07:47;22.60;;;12.67;;
44228;SDS011;29904;51.058;5.378;2022-12-13T01:10:13;24.08;;;12.80;;
44228;SDS011;29904;51.058;5.378;2022-12-13T01:12:39;22.70;;;13.07;;
44228;SDS011;29904;51.058;5.378;2022-12-13T01:15:05;25.70;;;13.00;;
44228;SDS011;29904;51.058;5.378;2022-12-13T01:17:33;27.60;;;13.35;;
44228;SDS011;29904;51.058;5.378;2022-12-13T01:20:00;21.92;;;12.70;;
44228;SDS011;29904;51.058;5.378;2022-12-13T01:22:26;21.98;;;12.70;;
44228;SDS011;29904;51.058;5.378;2022-12-13T01:24:51;26.97;;;13.10;;
44228;SDS011;29904;51.058;5.378;2022-12-13T01:27:17;21.85;;;12.80;;
44228;SDS011;29904;51.058;5.378;2022-12-13T01:29:45;24.67;;;13.07;;
44228;SDS011;29904;51.058;5.378;2022-12-13T01:32:10;23.60;;;12.90;;
44228;SDS011;29904;51.058;5.378;2022-12-13T01:34:38;24.37;;;13.23;;
44228;SDS011;29904;51.058;5.378;2022-12-13T01:37:04;28.27;;;14.07;;
44228;SDS011;29904;51.058;5.378;2022-12-13T01:39:29;25.77;;;12.93;;
44228;SDS011;29904;51.058;5.378;2022-12-13T01:41:55;26.67;;;13.47;;
44228;SDS011;29904;51.058;5.378;2022-12-13T01:47:39;25.37;;;13.50;;
44228;SDS011;29904;51.058;5.378;2022-12-13T01:50:09;22.33;;;12.65;;
44228;SDS011;29904;51.058;5.378;2022-12-13T01:52:39;25.42;;;13.48;;
44228;SDS011;29904;51.058;5.378;2022-12-13T01:55:07;22.20;;;12.27;;
44228;SDS011;29904;51.058;5.378;2022-12-13T01:57:34;25.77;;;12.77;;
44228;SDS011;29904;51.058;5.378;2022-12-13T02:00:04;24.48;;;12.35;;
44228;SDS011;29904;51.058;5.378;2022-12-13T02:02:32;21.95;;;12.35;;
44228;SDS011;29904;51.058;5.378;2022-12-13T02:07:37;23.73;;;12.98;;
44228;SDS011;29904;51.058;5.378;2022-12-13T02:10:06;23.02;;;12.63;;
44228;SDS011;29904;51.058;5.378;2022-12-13T02:12:34;23.98;;;12.82;;
44228;SDS011;29904;51.058;5.378;2022-12-13T02:15:03;24.27;;;12.95;;
44228;SDS011;29904;51.058;5.378;2022-12-13T02:31:31;25.58;;;13.25;;
44228;SDS011;29904;51.058;5.378;2022-12-13T02:36:40;24.02;;;12.77;;
44228;SDS011;29904;51.058;5.378;2022-12-13T02:39:16;23.95;;;11.88;;
44228;SDS011;29904;51.058;5.378;2022-12-13T02:41:48;24.52;;;13.02;;
44228;SDS011;29904;51.058;5.378;2022-12-13T02:44:26;22.52;;;12.65;;
44228;SDS011;29904;51.058;5.378;2022-12-13T02:47:16;22.48;;;12.02;;
44228;SDS011;29904;51.058;5.378;2022-12-13T02:49:47;22.15;;;12.15;;
44228;SDS011;29904;51.058;5.378;2022-12-13T02:52:19;22.58;;;11.90;;
44228;SDS011;29904;51.058;5.378;2022-12-13T02:54:48;23.23;;;12.40;;
44228;SDS011;29904;51.058;5.378;2022-12-13T02:57:34;23.37;;;12.30;;
44228;SDS011;29904;51.058;5.378;2022-12-13T03:00:06;24.60;;;12.40;;
44228;SDS011;29904;51.058;5.378;2022-12-13T03:08:05;23.70;;;12.70;;
44228;SDS011;29904;51.058;5.378;2022-12-13T03:10:44;23.58;;;12.85;;
44228;SDS011;29904;51.058;5.378;2022-12-13T03:13:15;23.67;;;12.23;;
44228;SDS011;29904;51.058;5.378;2022-12-13T03:16:08;24.45;;;12.82;;
44228;SDS011;29904;51.058;5.378;2022-12-13T03:18:43;22.80;;;12.77;;
44228;SDS011;29904;51.058;5.378;2022-12-13T03:21:10;20.70;;;11.77;;
44228;SDS011;29904;51.058;5.378;2022-12-13T03:23:36;24.38;;;11.90;;
44228;SDS011;29904;51.058;5.378;2022-12-13T03:28:34;23.87;;;12.30;;
44228;SDS011;29904;51.058;5.378;2022-12-13T03:31:01;22.45;;;12.30;;
44228;SDS011;29904;51.058;5.378;2022-12-13T03:33:27;23.63;;;11.90;;
44228;SDS011;29904;51.058;5.378;2022-12-13T03:35:53;20.33;;;12.13;;
44228;SDS011;29904;51.058;5.378;2022-12-13T03:38:21;23.98;;;12.13;;
44228;SDS011;29904;51.058;5.378;2022-12-13T03:40:47;22.00;;;12.18;;
44228;SDS011;29904;51.058;5.378;2022-12-13T03:43:34;21.45;;;11.75;;
44228;SDS011;29904;51.058;5.378;2022-12-13T03:46:02;22.15;;;11.63;;
44228;SDS011;29904;51.058;5.378;2022-12-13T03:48:28;24.33;;;12.65;;
44228;SDS011;29904;51.058;5.378;2022-12-13T03:50:53;27.85;;;15.98;;
44228;SDS011;29904;51.058;5.378;2022-12-13T03:53:20;21.13;;;11.85;;
44228;SDS011;29904;51.058;5.378;2022-12-13T03:55:47;22.73;;;11.90;;
44228;SDS011;29904;51.058;5.378;2022-12-13T03:58:12;22.85;;;12.45;;
44228;SDS011;29904;51.058;5.378;2022-12-13T04:00:38;22.20;;;11.97;;
44228;SDS011;29904;51.058;5.378;2022-12-13T04:03:04;23.70;;;11.90;;
44228;SDS011;29904;51.058;5.378;2022-12-13T04:05:29;21.42;;;12.00;;
44228;SDS011;29904;51.058;5.378;2022-12-13T04:07:55;24.17;;;12.32;;
44228;SDS011;29904;51.058;5.378;2022-12-13T04:10:21;25.67;;;11.95;;
44228;SDS011;29904;51.058;5.378;2022-12-13T04:12:47;22.90;;;12.10;;
44228;SDS011;29904;51.058;5.378;2022-12-13T04:15:31;22.48;;;11.73;;
44228;SDS011;29904;51.058;5.378;2022-12-13T04:17:57;22.63;;;11.87;;
44228;SDS011;29904;51.058;5.378;2022-12-13T04:20:23;21.25;;;12.20;;
44228;SDS011;29904;51.058;5.378;2022-12-13T04:22:49;21.75;;;11.38;;
44228;SDS011;29904;51.058;5.378;2022-12-13T04:25:15;21.57;;;11.57;;
44228;SDS011;29904;51.058;5.378;2022-12-13T04:27:44;22.65;;;11.93;;
44228;SDS011;29904;51.058;5.378;2022-12-13T04:30:10;19.83;;;11.35;;
44228;SDS011;29904;51.058;5.378;2022-12-13T04:32:37;20.77;;;11.67;;
44228;SDS011;29904;51.058;5.378;2022-12-13T04:35:04;22.63;;;12.57;;
44228;SDS011;29904;51.058;5.378;2022-12-13T04:37:30;22.45;;;11.38;;
44228;SDS011;29904;51.058;5.378;2022-12-13T04:39:56;23.02;;;11.93;;
44228;SDS011;29904;51.058;5.378;2022-12-13T04:42:22;20.50;;;11.53;;
44228;SDS011;29904;51.058;5.378;2022-12-13T04:44:48;22.33;;;12.15;;
44228;SDS011;29904;51.058;5.378;2022-12-13T04:47:14;20.17;;;11.43;;
44228;SDS011;29904;51.058;5.378;2022-12-13T04:49:40;22.45;;;12.45;;
44228;SDS011;29904;51.058;5.378;2022-12-13T04:52:06;21.63;;;11.38;;
44228;SDS011;29904;51.058;5.378;2022-12-13T04:54:32;23.57;;;11.77;;
44228;SDS011;29904;51.058;5.378;2022-12-13T04:56:59;22.00;;;11.68;;
44228;SDS011;29904;51.058;5.378;2022-12-13T04:59:25;25.37;;;12.10;;
44228;SDS011;29904;51.058;5.378;2022-12-13T05:01:51;22.27;;;11.68;;
44228;SDS011;29904;51.058;5.378;2022-12-13T05:04:17;20.60;;;11.13;;
44228;SDS011;29904;51.058;5.378;2022-12-13T05:06:42;22.50;;;11.80;;
44228;SDS011;29904;51.058;5.378;2022-12-13T05:09:08;22.65;;;11.75;;
44228;SDS011;29904;51.058;5.378;2022-12-13T05:11:37;20.52;;;11.77;;
44228;SDS011;29904;51.058;5.378;2022-12-13T05:14:03;22.23;;;12.47;;
44228;SDS011;29904;51.058;5.378;2022-12-13T05:16:29;22.15;;;11.60;;
44228;SDS011;29904;51.058;5.378;2022-12-13T05:18:55;20.27;;;11.07;;
44228;SDS011;29904;51.058;5.378;2022-12-13T05:21:20;19.73;;;11.27;;
44228;SDS011;29904;51.058;5.378;2022-12-13T05:23:46;23.70;;;12.05;;
44228;SDS011;29904;51.058;5.378;2022-12-13T05:26:12;22.88;;;11.90;;
44228;SDS011;29904;51.058;5.378;2022-12-13T05:28:37;23.43;;;12.47;;
44228;SDS011;29904;51.058;5.378;2022-12-13T05:31:07;23.02;;;12.30;;
44228;SDS011;29904;51.058;5.378;2022-12-13T05:33:35;23.27;;;12.27;;
44228;SDS011;29904;51.058;5.378;2022-12-13T05:36:01;22.13;;;12.38;;
44228;SDS011;29904;51.058;5.378;2022-12-13T05:38:27;22.27;;;12.18;;
44228;SDS011;29904;51.058;5.378;2022-12-13T05:40:53;21.48;;;11.48;;
44228;SDS011;29904;51.058;5.378;2022-12-13T05:43:19;21.53;;;12.23;;
44228;SDS011;29904;51.058;5.378;2022-12-13T05:45:45;22.63;;;12.27;;
44228;SDS011;29904;51.058;5.378;2022-12-13T05:48:17;21.48;;;12.40;;
44228;SDS011;29904;51.058;5.378;2022-12-13T05:50:43;21.33;;;11.60;;
44228;SDS011;29904;51.058;5.378;2022-12-13T05:53:09;22.63;;;11.60;;
44228;SDS011;29904;51.058;5.378;2022-12-13T05:55:36;23.77;;;12.27;;
44228;SDS011;29904;51.058;5.378;2022-12-13T05:58:02;24.70;;;12.25;;
44228;SDS011;29904;51.058;5.378;2022-12-13T06:00:28;20.75;;;11.45;;
44228;SDS011;29904;51.058;5.378;2022-12-13T06:02:56;21.65;;;12.18;;
44228;SDS011;29904;51.058;5.378;2022-12-13T06:05:22;20.98;;;11.18;;
44228;SDS011;29904;51.058;5.378;2022-12-13T06:07:48;19.73;;;10.95;;
44228;SDS011;29904;51.058;5.378;2022-12-13T06:10:18;24.08;;;11.70;;
44228;SDS011;29904;51.058;5.378;2022-12-13T06:12:43;21.77;;;11.17;;
44228;SDS011;29904;51.058;5.378;2022-12-13T06:15:09;20.60;;;11.60;;
44228;SDS011;29904;51.058;5.378;2022-12-13T06:17:35;22.40;;;11.13;;
44228;SDS011;29904;51.058;5.378;2022-12-13T06:20:02;20.55;;;10.82;;
44228;SDS011;29904;51.058;5.378;2022-12-13T06:22:28;18.77;;;10.57;;
44228;SDS011;29904;51.058;5.378;2022-12-13T06:24:56;21.63;;;11.43;;
44228;SDS011;29904;51.058;5.378;2022-12-13T06:27:22;21.50;;;11.13;;
44228;SDS011;29904;51.058;5.378;2022-12-13T06:29:48;22.50;;;11.70;;
44228;SDS011;29904;51.058;5.378;2022-12-13T06:32:14;22.55;;;12.80;;
44228;SDS011;29904;51.058;5.378;2022-12-13T06:34:40;22.57;;;11.73;;
44228;SDS011;29904;51.058;5.378;2022-12-13T06:37:06;22.13;;;12.10;;
44228;SDS011;29904;51.058;5.378;2022-12-13T06:39:34;23.20;;;12.90;;
44228;SDS011;29904;51.058;5.378;2022-12-13T06:42:01;23.23;;;13.02;;
44228;SDS011;29904;51.058;5.378;2022-12-13T06:44:29;23.95;;;13.65;;
44228;SDS011;29904;51.058;5.378;2022-12-13T06:46:55;25.97;;;13.37;;
44228;SDS011;29904;51.058;5.378;2022-12-13T06:49:23;25.73;;;13.52;;
44228;SDS011;29904;51.058;5.378;2022-12-13T06:51:48;25.77;;;13.77;;
44228;SDS011;29904;51.058;5.378;2022-12-13T06:54:14;23.70;;;13.07;;
44228;SDS011;29904;51.058;5.378;2022-12-13T06:56:40;22.38;;;13.05;;
44228;SDS011;29904;51.058;5.378;2022-12-13T06:59:05;24.48;;;13.57;;
44228;SDS011;29904;51.058;5.378;2022-12-13T07:01:31;26.30;;;14.20;;
44228;SDS011;29904;51.058;5.378;2022-12-13T07:03:57;26.67;;;14.23;;
44228;SDS011;29904;51.058;5.378;2022-12-13T07:06:23;25.70;;;13.77;;
44228;SDS011;29904;51.058;5.378;2022-12-13T07:08:51;23.00;;;13.25;;
44228;SDS011;29904;51.058;5.378;2022-12-13T07:11:21;28.73;;;14.18;;
44228;SDS011;29904;51.058;5.378;2022-12-13T07:13:51;28.43;;;14.60;;
44228;SDS011;29904;51.058;5.378;2022-12-13T07:16:20;28.25;;;14.07;;
44228;SDS011;29904;51.058;5.378;2022-12-13T07:18:46;26.17;;;13.65;;
44228;SDS011;29904;51.058;5.378;2022-12-13T07:21:13;27.88;;;14.45;;
44228;SDS011;29904;51.058;5.378;2022-12-13T07:23:39;26.48;;;14.10;;
44228;SDS011;29904;51.058;5.378;2022-12-13T07:26:06;26.53;;;14.83;;
44228;SDS011;29904;51.058;5.378;2022-12-13T07:28:35;28.33;;;15.25;;
44228;SDS011;29904;51.058;5.378;2022-12-13T07:31:03;28.70;;;15.00;;
44228;SDS011;29904;51.058;5.378;2022-12-13T07:33:30;30.58;;;15.38;;
44228;SDS011;29904;51.058;5.378;2022-12-13T07:35:58;28.10;;;14.97;;
44228;SDS011;29904;51.058;5.378;2022-12-13T07:38:44;30.25;;;15.40;;
44228;SDS011;29904;51.058;5.378;2022-12-13T07:41:15;29.50;;;15.50;;
44228;SDS011;29904;51.058;5.378;2022-12-13T07:43:41;26.80;;;14.45;;
44228;SDS011;29904;51.058;5.378;2022-12-13T07:46:06;29.98;;;15.60;;
44228;SDS011;29904;51.058;5.378;2022-12-13T07:48:33;31.00;;;16.40;;
44228;SDS011;29904;51.058;5.378;2022-12-13T07:51:02;29.70;;;15.90;;
44228;SDS011;29904;51.058;5.378;2022-12-13T07:53:31;30.30;;;15.57;;
44228;SDS011;29904;51.058;5.378;2022-12-13T07:56:00;28.58;;;15.77;;
44228;SDS011;29904;51.058;5.378;2022-12-13T07:58:27;28.02;;;14.98;;
44228;SDS011;29904;51.058;5.378;2022-12-13T08:00:57;30.75;;;15.50;;
44228;SDS011;29904;51.058;5.378;2022-12-13T08:03:24;30.25;;;16.30;;
44228;SDS011;29904;51.058;5.378;2022-12-13T08:05:57;30.40;;;15.98;;
44228;SDS011;29904;51.058;5.378;2022-12-13T08:08:33;29.45;;;15.77;;
44228;SDS011;29904;51.058;5.378;2022-12-13T08:10:59;30.50;;;15.68;;
44228;SDS011;29904;51.058;5.378;2022-12-13T08:13:33;34.60;;;17.13;;
44228;SDS011;29904;51.058;5.378;2022-12-13T08:16:04;33.53;;;16.05;;
44228;SDS011;29904;51.058;5.378;2022-12-13T08:18:31;33.37;;;16.37;;
44228;SDS011;29904;51.058;5.378;2022-12-13T08:20:58;33.53;;;17.02;;
44228;SDS011;29904;51.058;5.378;2022-12-13T08:23:29;36.05;;;17.42;;
44228;SDS011;29904;51.058;5.378;2022-12-13T08:25:57;36.58;;;17.80;;
44228;SDS011;29904;51.058;5.378;2022-12-13T08:28:23;39.00;;;18.52;;
44228;SDS011;29904;51.058;5.378;2022-12-13T08:30:50;37.47;;;18.27;;
44228;SDS011;29904;51.058;5.378;2022-12-13T08:33:17;37.38;;;18.15;;
44228;SDS011;29904;51.058;5.378;2022-12-13T08:35:44;36.33;;;18.20;;
44228;SDS011;29904;51.058;5.378;2022-12-13T08:38:10;38.37;;;18.70;;
44228;SDS011;29904;51.058;5.378;2022-12-13T08:40:36;39.08;;;18.83;;
44228;SDS011;29904;51.058;5.378;2022-12-13T08:43:02;40.17;;;19.27;;
44228;SDS011;29904;51.058;5.378;2022-12-13T08:45:30;43.53;;;19.65;;
44228;SDS011;29904;51.058;5.378;2022-12-13T08:47:58;43.75;;;20.20;;
44228;SDS011;29904;51.058;5.378;2022-12-13T08:50:26;43.30;;;20.45;;
44228;SDS011;29904;51.058;5.378;2022-12-13T08:52:54;45.22;;;20.52;;
44228;SDS011;29904;51.058;5.378;2022-12-13T08:55:20;44.88;;;21.10;;
44228;SDS011;29904;51.058;5.378;2022-12-13T08:57:46;42.38;;;20.38;;
44228;SDS011;29904;51.058;5.378;2022-12-13T09:00:13;44.73;;;20.73;;
44228;SDS011;29904;51.058;5.378;2022-12-13T09:02:41;47.17;;;21.00;;
44228;SDS011;29904;51.058;5.378;2022-12-13T09:05:08;44.17;;;20.98;;
44228;SDS011;29904;51.058;5.378;2022-12-13T09:07:34;44.15;;;20.77;;
44228;SDS011;29904;51.058;5.378;2022-12-13T09:10:01;47.20;;;21.77;;
44228;SDS011;29904;51.058;5.378;2022-12-13T09:12:29;46.95;;;22.23;;
44228;SDS011;29904;51.058;5.378;2022-12-13T09:14:55;48.50;;;22.17;;
44228;SDS011;29904;51.058;5.378;2022-12-13T09:17:20;46.88;;;21.50;;
44228;SDS011;29904;51.058;5.378;2022-12-13T09:19:46;50.10;;;22.38;;
44228;SDS011;29904;51.058;5.378;2022-12-13T09:22:12;46.13;;;22.65;;
44228;SDS011;29904;51.058;5.378;2022-12-13T09:24:38;44.47;;;21.95;;
44228;SDS011;29904;51.058;5.378;2022-12-13T09:27:04;47.75;;;22.17;;
44228;SDS011;29904;51.058;5.378;2022-12-13T09:29:33;45.78;;;21.98;;
44228;SDS011;29904;51.058;5.378;2022-12-13T09:31:59;42.25;;;21.65;;
44228;SDS011;29904;51.058;5.378;2022-12-13T09:34:25;44.38;;;22.33;;
44228;SDS011;29904;51.058;5.378;2022-12-13T09:36:51;46.40;;;22.45;;
44228;SDS011;29904;51.058;5.378;2022-12-13T09:39:16;45.27;;;22.00;;
44228;SDS011;29904;51.058;5.378;2022-12-13T09:41:46;44.50;;;22.15;;
44228;SDS011;29904;51.058;5.378;2022-12-13T09:44:18;43.85;;;20.75;;
44228;SDS011;29904;51.058;5.378;2022-12-13T09:46:48;45.13;;;21.95;;
44228;SDS011;29904;51.058;5.378;2022-12-13T09:49:17;44.23;;;22.57;;
44228;SDS011;29904;51.058;5.378;2022-12-13T09:51:56;42.45;;;21.40;;
44228;SDS011;29904;51.058;5.378;2022-12-13T09:54:26;42.15;;;21.50;;
44228;SDS011;29904;51.058;5.378;2022-12-13T09:56:53;44.13;;;21.83;;
44228;SDS011;29904;51.058;5.378;2022-12-13T09:59:39;41.58;;;21.65;;
44228;SDS011;29904;51.058;5.378;2022-12-13T10:02:24;44.20;;;21.65;;
44228;SDS011;29904;51.058;5.378;2022-12-13T10:04:53;41.17;;;21.48;;
44228;SDS011;29904;51.058;5.378;2022-12-13T10:07:33;41.67;;;20.20;;
44228;SDS011;29904;51.058;5.378;2022-12-13T10:10:03;43.45;;;21.30;;
44228;SDS011;29904;51.058;5.378;2022-12-13T10:12:28;40.08;;;21.38;;
44228;SDS011;29904;51.058;5.378;2022-12-13T10:14:57;40.65;;;20.77;;
44228;SDS011;29904;51.058;5.378;2022-12-13T10:17:27;39.45;;;20.27;;
44228;SDS011;29904;51.058;5.378;2022-12-13T10:19:58;40.67;;;21.13;;
44228;SDS011;29904;51.058;5.378;2022-12-13T10:22:27;38.22;;;20.60;;
44228;SDS011;29904;51.058;5.378;2022-12-13T10:24:54;41.87;;;21.07;;
44228;SDS011;29904;51.058;5.378;2022-12-13T10:27:27;40.28;;;20.33;;
44228;SDS011;29904;51.058;5.378;2022-12-13T10:30:00;39.47;;;21.23;;
44228;SDS011;29904;51.058;5.378;2022-12-13T10:33:17;42.30;;;20.73;;
44228;SDS011;29904;51.058;5.378;2022-12-13T10:35:32;36.05;;;19.42;;
44228;SDS011;29904;51.058;5.378;2022-12-13T10:38:01;38.28;;;20.33;;
44228;SDS011;29904;51.058;5.378;2022-12-13T10:40:45;36.17;;;19.98;;
44228;SDS011;29904;51.058;5.378;2022-12-13T10:43:20;39.10;;;18.90;;
44228;SDS011;29904;51.058;5.378;2022-12-13T10:53:31;35.78;;;18.42;;
44228;SDS011;29904;51.058;5.378;2022-12-13T10:56:00;35.95;;;18.40;;
44228;SDS011;29904;51.058;5.378;2022-12-13T10:58:39;34.63;;;18.17;;
44228;SDS011;29904;51.058;5.378;2022-12-13T11:03:35;34.58;;;17.77;;
44228;SDS011;29904;51.058;5.378;2022-12-13T11:06:06;33.43;;;17.83;;
44228;SDS011;29904;51.058;5.378;2022-12-13T11:08:38;34.33;;;18.27;;
44228;SDS011;29904;51.058;5.378;2022-12-13T11:11:05;36.30;;;18.95;;
44228;SDS011;29904;51.058;5.378;2022-12-13T11:13:35;33.23;;;17.80;;
44228;SDS011;29904;51.058;5.378;2022-12-13T11:16:12;34.55;;;17.92;;
44228;SDS011;29904;51.058;5.378;2022-12-13T11:18:51;33.90;;;17.80;;
44228;SDS011;29904;51.058;5.378;2022-12-13T11:21:27;33.30;;;18.02;;
44228;SDS011;29904;51.058;5.378;2022-12-13T11:23:56;30.33;;;17.25;;
44228;SDS011;29904;51.058;5.378;2022-12-13T11:26:25;30.47;;;16.67;;
44228;SDS011;29904;51.058;5.378;2022-12-13T11:33:57;32.38;;;17.05;;
44228;SDS011;29904;51.058;5.378;2022-12-13T11:39:50;31.85;;;17.40;;
44228;SDS011;29904;51.058;5.378;2022-12-13T11:42:30;33.13;;;17.40;;
44228;SDS011;29904;51.058;5.378;2022-12-13T11:45:28;35.45;;;17.17;;
44228;SDS011;29904;51.058;5.378;2022-12-13T11:50:44;29.90;;;16.40;;
44228;SDS011;29904;51.058;5.378;2022-12-13T11:58:47;33.10;;;16.67;;
44228;SDS011;29904;51.058;5.378;2022-12-13T12:01:40;30.67;;;17.00;;
44228;SDS011;29904;51.058;5.378;2022-12-13T12:04:13;29.58;;;16.35;;
44228;SDS011;29904;51.058;5.378;2022-12-13T12:06:58;31.00;;;15.85;;
44228;SDS011;29904;51.058;5.378;2022-12-13T12:09:31;29.77;;;16.25;;
44228;SDS011;29904;51.058;5.378;2022-12-13T12:12:05;30.65;;;16.15;;
44228;SDS011;29904;51.058;5.378;2022-12-13T12:14:40;28.75;;;15.63;;
44228;SDS011;29904;51.058;5.378;2022-12-13T12:17:13;31.35;;;16.08;;
44228;SDS011;29904;51.058;5.378;2022-12-13T12:19:44;30.48;;;16.92;;
44228;SDS011;29904;51.058;5.378;2022-12-13T12:27:54;30.65;;;15.82;;
44228;SDS011;29904;51.058;5.378;2022-12-13T12:31:00;28.00;;;15.47;;
44228;SDS011;29904;51.058;5.378;2022-12-13T12:48:02;29.48;;;16.52;;
44228;SDS011;29904;51.058;5.378;2022-12-13T12:50:55;30.10;;;16.45;;
44228;SDS011;29904;51.058;5.378;2022-12-13T13:01:23;30.10;;;16.83;;
44228;SDS011;29904;51.058;5.378;2022-12-13T13:03:54;31.67;;;16.58;;
44228;SDS011;29904;51.058;5.378;2022-12-13T13:08:58;28.80;;;15.80;;
44228;SDS011;29904;51.058;5.378;2022-12-13T13:11:40;27.87;;;15.17;;
44228;SDS011;29904;51.058;5.378;2022-12-13T13:17:00;26.27;;;15.43;;
44228;SDS011;29904;51.058;5.378;2022-12-13T13:19:54;30.38;;;16.17;;
44228;SDS011;29904;51.058;5.378;2022-12-13T13:22:47;30.77;;;16.38;;
44228;SDS011;29904;51.058;5.378;2022-12-13T13:27:59;31.93;;;16.73;;
44228;SDS011;29904;51.058;5.378;2022-12-13T13:30:27;29.70;;;16.00;;
44228;SDS011;29904;51.058;5.378;2022-12-13T13:32:54;28.85;;;16.50;;
44228;SDS011;29904;51.058;5.378;2022-12-13T13:38:00;29.15;;;16.20;;
44228;SDS011;29904;51.058;5.378;2022-12-13T13:40:29;29.90;;;16.50;;
44228;SDS011;29904;51.058;5.378;2022-12-13T13:43:03;31.10;;;16.67;;
44228;SDS011;29904;51.058;5.378;2022-12-13T13:48:47;29.77;;;16.25;;
44228;SDS011;29904;51.058;5.378;2022-12-13T13:51:29;30.85;;;16.27;;
44228;SDS011;29904;51.058;5.378;2022-12-13T13:56:57;30.00;;;16.17;;
44228;SDS011;29904;51.058;5.378;2022-12-13T14:10:59;28.60;;;15.93;;
44228;SDS011;29904;51.058;5.378;2022-12-13T14:16:53;28.35;;;15.73;;
44228;SDS011;29904;51.058;5.378;2022-12-13T14:30:04;26.15;;;14.48;;
44228;SDS011;29904;51.058;5.378;2022-12-13T14:32:30;25.85;;;14.93;;
44228;SDS011;29904;51.058;5.378;2022-12-13T14:35:01;27.40;;;14.65;;
44228;SDS011;29904;51.058;5.378;2022-12-13T14:37:33;25.90;;;14.60;;
44228;SDS011;29904;51.058;5.378;2022-12-13T14:40:02;26.73;;;14.60;;
44228;SDS011;29904;51.058;5.378;2022-12-13T14:42:52;26.13;;;14.43;;
44228;SDS011;29904;51.058;5.378;2022-12-13T14:45:21;26.90;;;14.38;;
44228;SDS011;29904;51.058;5.378;2022-12-13T14:47:54;24.90;;;14.00;;
44228;SDS011;29904;51.058;5.378;2022-12-13T14:50:52;27.52;;;14.35;;
44228;SDS011;29904;51.058;5.378;2022-12-13T14:53:41;28.88;;;14.52;;
44228;SDS011;29904;51.058;5.378;2022-12-13T14:56:08;27.23;;;15.23;;
44228;SDS011;29904;51.058;5.378;2022-12-13T14:58:36;27.90;;;15.70;;
44228;SDS011;29904;51.058;5.378;2022-12-13T15:01:06;26.90;;;15.02;;
44228;SDS011;29904;51.058;5.378;2022-12-13T15:03:50;26.13;;;14.68;;
44228;SDS011;29904;51.058;5.378;2022-12-13T15:06:16;28.03;;;14.13;;
44228;SDS011;29904;51.058;5.378;2022-12-13T15:08:44;27.25;;;13.95;;
44228;SDS011;29904;51.058;5.378;2022-12-13T15:11:11;26.15;;;14.13;;
44228;SDS011;29904;51.058;5.378;2022-12-13T15:16:21;25.25;;;13.23;;
44228;SDS011;29904;51.058;5.378;2022-12-13T15:21:55;23.17;;;13.35;;
44228;SDS011;29904;51.058;5.378;2022-12-13T15:24:25;23.80;;;13.65;;
44228;SDS011;29904;51.058;5.378;2022-12-13T15:26:56;24.77;;;13.73;;
44228;SDS011;29904;51.058;5.378;2022-12-13T15:29:26;24.83;;;13.33;;
44228;SDS011;29904;51.058;5.378;2022-12-13T15:31:57;23.38;;;13.05;;
44228;SDS011;29904;51.058;5.378;2022-12-13T15:37:02;23.65;;;12.88;;
44228;SDS011;29904;51.058;5.378;2022-12-13T15:39:41;25.25;;;13.35;;
44228;SDS011;29904;51.058;5.378;2022-12-13T15:42:21;24.52;;;12.98;;
44228;SDS011;29904;51.058;5.378;2022-12-13T15:44:56;24.77;;;13.23;;
44228;SDS011;29904;51.058;5.378;2022-12-13T15:47:24;24.37;;;13.77;;
44228;SDS011;29904;51.058;5.378;2022-12-13T15:52:28;23.50;;;13.33;;
44228;SDS011;29904;51.058;5.378;2022-12-13T15:57:34;23.20;;;13.37;;
44228;SDS011;29904;51.058;5.378;2022-12-13T16:05:22;22.60;;;12.93;;
44228;SDS011;29904;51.058;5.378;2022-12-13T16:07:51;24.25;;;12.90;;
44228;SDS011;29904;51.058;5.378;2022-12-13T16:10:18;24.70;;;13.07;;
44228;SDS011;29904;51.058;5.378;2022-12-13T16:12:49;22.55;;;12.93;;
44228;SDS011;29904;51.058;5.378;2022-12-13T16:15:24;24.25;;;13.50;;
44228;SDS011;29904;51.058;5.378;2022-12-13T16:18:06;22.38;;;12.65;;
44228;SDS011;29904;51.058;5.378;2022-12-13T16:20:37;23.40;;;12.80;;
44228;SDS011;29904;51.058;5.378;2022-12-13T16:23:03;22.27;;;12.63;;
44228;SDS011;29904;51.058;5.378;2022-12-13T16:25:31;23.73;;;12.80;;
44228;SDS011;29904;51.058;5.378;2022-12-13T16:27:56;21.47;;;12.37;;
44228;SDS011;29904;51.058;5.378;2022-12-13T16:33:17;22.02;;;12.35;;
44228;SDS011;29904;51.058;5.378;2022-12-13T16:35:52;23.80;;;12.97;;
44228;SDS011;29904;51.058;5.378;2022-12-13T16:38:19;21.00;;;11.77;;
44228;SDS011;29904;51.058;5.378;2022-12-13T16:40:45;20.80;;;11.85;;
44228;SDS011;29904;51.058;5.378;2022-12-13T16:43:15;20.27;;;10.88;;
44228;SDS011;29904;51.058;5.378;2022-12-13T16:45:45;21.58;;;11.77;;
44228;SDS011;29904;51.058;5.378;2022-12-13T16:48:13;22.50;;;12.85;;
44228;SDS011;29904;51.058;5.378;2022-12-13T16:50:40;21.48;;;11.85;;
44228;SDS011;29904;51.058;5.378;2022-12-13T16:53:12;21.20;;;12.05;;
44228;SDS011;29904;51.058;5.378;2022-12-13T16:55:38;19.95;;;11.43;;
44228;SDS011;29904;51.058;5.378;2022-12-13T16:58:05;21.42;;;11.57;;
44228;SDS011;29904;51.058;5.378;2022-12-13T17:00:33;20.52;;;12.07;;
44228;SDS011;29904;51.058;5.378;2022-12-13T17:03:00;20.73;;;11.57;;
44228;SDS011;29904;51.058;5.378;2022-12-13T17:05:27;21.83;;;11.13;;